createdAt,value
2022-11-11T00:01:16.855Z,10.60
2022-11-11T00:03:48.781Z,10.98
2022-11-11T00:06:25.415Z,10.20
2022-11-11T00:08:57.355Z,9.48
2022-11-11T00:11:29.345Z,12.10
2022-11-11T00:14:01.322Z,10.45
2022-11-11T00:16:53.305Z,9.07
2022-11-11T00:20:03.450Z,10.10
2022-11-11T00:23:14.231Z,9.77
2022-11-11T00:26:33.118Z,10.35
2022-11-11T00:28:59.352Z,10.68
2022-11-11T00:31:32.417Z,10.40
2022-11-11T00:34:06.214Z,17.25
2022-11-11T00:36:38.292Z,10.50
2022-11-11T00:39:10.216Z,10.93
2022-11-11T00:41:42.258Z,10.95
2022-11-11T00:44:14.191Z,10.25
2022-11-11T00:47:04.705Z,9.93
2022-11-11T00:50:14.810Z,9.57
2022-11-11T00:53:28.354Z,11.18
2022-11-11T00:56:01.847Z,15.68
2022-11-11T00:58:34.069Z,11.27
2022-11-11T01:01:05.994Z,9.45
2022-11-11T01:03:38.018Z,9.95
2022-11-11T01:06:12.477Z,11.30
2022-11-11T01:08:45.141Z,10.68
2022-11-11T01:11:20.315Z,9.95
2022-11-11T01:13:53.898Z,9.88
2022-11-11T01:16:27.519Z,12.35
2022-11-11T01:18:59.652Z,9.30
2022-11-11T01:21:31.641Z,13.20
2022-11-11T01:24:03.998Z,12.38
2022-11-11T01:26:36.237Z,10.13
2022-11-11T01:29:08.209Z,9.50
2022-11-11T01:31:40.118Z,9.20
2022-11-11T01:34:12.103Z,12.13
2022-11-11T01:36:44.114Z,10.75
2022-11-11T01:39:16.148Z,10.60
2022-11-11T01:41:48.162Z,9.50
2022-11-11T01:44:41.578Z,11.25
2022-11-11T01:47:19.352Z,9.52
2022-11-11T01:50:00.536Z,9.38
2022-11-11T01:52:38.477Z,9.50
2022-11-11T01:55:21.118Z,10.48
2022-11-11T01:58:03.582Z,10.90
2022-11-11T02:00:38.869Z,10.35
2022-11-11T02:03:12.457Z,11.30
2022-11-11T02:05:47.900Z,10.07
2022-11-11T02:08:34.133Z,11.35
2022-11-11T02:11:10.815Z,10.82
2022-11-11T02:14:06.001Z,11.45
2022-11-11T02:16:58.738Z,10.13
2022-11-11T02:19:53.906Z,12.98
2022-11-11T02:22:57.741Z,11.30
2022-11-11T02:25:51.817Z,9.35
2022-11-11T02:28:27.624Z,8.40
2022-11-11T02:31:00.263Z,10.18
2022-11-11T02:33:32.320Z,10.40
2022-11-11T02:36:06.082Z,9.00
2022-11-11T02:38:40.507Z,9.82
2022-11-11T02:41:31.562Z,10.45
2022-11-11T02:44:24.293Z,14.00
2022-11-11T02:46:57.878Z,12.82
2022-11-11T02:49:30.248Z,12.63
2022-11-11T02:52:02.900Z,12.43
2022-11-11T02:54:35.102Z,13.02
2022-11-11T02:57:07.544Z,15.23
2022-11-11T02:59:41.287Z,13.80
2022-11-11T03:02:13.944Z,12.18
2022-11-11T03:04:45.911Z,11.20
2022-11-11T03:07:18.026Z,12.85
2022-11-11T03:09:50.259Z,12.50
2022-11-11T03:12:22.441Z,14.30
2022-11-11T03:14:55.295Z,12.32
2022-11-11T03:17:39.547Z,11.38
2022-11-11T03:20:32.382Z,11.35
2022-11-11T03:23:24.328Z,12.73
2022-11-11T03:25:58.398Z,12.70
2022-11-11T03:28:47.510Z,12.45
2022-11-11T03:31:20.657Z,12.45
2022-11-11T03:33:52.721Z,12.80
2022-11-11T03:36:44.691Z,13.25
2022-11-11T03:39:36.326Z,11.38
2022-11-11T03:42:08.325Z,12.43
2022-11-11T03:44:40.165Z,11.45
2022-11-11T03:47:12.318Z,11.88
2022-11-11T03:49:47.079Z,11.93
2022-11-11T03:52:19.685Z,12.57
2022-11-11T03:54:51.519Z,12.05
2022-11-11T03:57:32.457Z,11.27
2022-11-11T04:00:12.225Z,12.43
2022-11-11T04:03:11.488Z,12.02
2022-11-11T04:06:22.614Z,12.05
2022-11-11T04:09:33.338Z,12.98
2022-11-11T04:12:26.458Z,11.07
2022-11-11T04:15:18.951Z,11.80
2022-11-11T04:18:10.659Z,11.38
2022-11-11T04:21:02.250Z,12.32
2022-11-11T04:23:54.163Z,11.45
2022-11-11T04:26:26.137Z,11.05
2022-11-11T04:29:16.449Z,10.32
2022-11-11T04:32:28.528Z,13.60
2022-11-11T04:35:13.777Z,12.23
2022-11-11T04:37:49.403Z,11.57
2022-11-11T04:40:50.605Z,10.55
2022-11-11T04:43:58.823Z,10.75
2022-11-11T04:46:50.535Z,10.65
2022-11-11T04:49:22.522Z,10.75
2022-11-11T04:52:17.191Z,11.57
2022-11-11T04:55:23.735Z,12.27
2022-11-11T04:58:16.710Z,14.82
2022-11-11T05:00:51.788Z,12.25
2022-11-11T05:03:24.825Z,11.60
2022-11-11T05:06:17.443Z,13.48
2022-11-11T05:09:09.363Z,12.38
2022-11-11T05:11:41.457Z,11.90
2022-11-11T05:14:48.494Z,11.20
2022-11-11T05:17:58.651Z,12.80
2022-11-11T05:21:09.224Z,11.60
2022-11-11T05:24:15.875Z,12.02
2022-11-11T05:27:07.635Z,11.30
2022-11-11T05:29:39.708Z,11.63
2022-11-11T05:32:15.791Z,13.18
2022-11-11T05:34:50.290Z,11.30
2022-11-11T05:37:23.122Z,10.98
2022-11-11T05:39:55.393Z,11.45
2022-11-11T05:42:27.469Z,11.23
2022-11-11T05:44:59.405Z,14.80
2022-11-11T05:47:31.336Z,11.10
2022-11-11T05:50:03.819Z,12.27
2022-11-11T05:52:36.779Z,12.70
2022-11-11T05:55:09.066Z,10.73
2022-11-11T05:57:41.025Z,12.00
2022-11-11T06:00:13.653Z,11.35
2022-11-11T06:02:46.193Z,11.55
2022-11-11T06:05:18.284Z,12.38
2022-11-11T06:07:54.659Z,9.82
2022-11-11T06:10:32.420Z,10.95
2022-11-11T06:13:10.321Z,12.43
2022-11-11T06:15:44.133Z,9.52
2022-11-11T06:18:16.262Z,9.73
2022-11-11T06:20:54.219Z,9.77
2022-11-11T06:23:29.129Z,10.95
2022-11-11T06:26:13.844Z,10.73
2022-11-11T06:28:56.132Z,10.80
2022-11-11T06:31:28.407Z,9.73
2022-11-11T06:34:00.416Z,12.48
2022-11-11T06:36:32.390Z,11.00
2022-11-11T06:39:04.349Z,14.27
2022-11-11T06:41:36.332Z,10.57
2022-11-11T06:44:08.313Z,9.45
2022-11-11T06:46:40.270Z,10.25
2022-11-11T06:49:12.410Z,9.98
2022-11-11T06:51:44.522Z,11.82
2022-11-11T06:54:16.526Z,10.52
2022-11-11T06:56:49.175Z,11.30
2022-11-11T06:59:21.123Z,11.30
2022-11-11T07:02:31.900Z,9.63
2022-11-11T07:05:04.619Z,12.15
2022-11-11T07:07:36.979Z,13.00
2022-11-11T07:10:10.530Z,11.95
2022-11-11T07:12:42.671Z,10.13
2022-11-11T07:15:15.058Z,13.38
2022-11-11T07:17:47.290Z,10.90
2022-11-11T07:20:19.734Z,9.98
2022-11-11T07:22:52.094Z,10.55
2022-11-11T07:25:24.216Z,11.25
2022-11-11T07:27:59.224Z,9.80
2022-11-11T07:30:31.602Z,10.15
2022-11-11T07:33:03.715Z,9.75
2022-11-11T07:35:35.911Z,9.85
2022-11-11T07:38:07.859Z,9.63
2022-11-11T07:40:40.023Z,10.25
2022-11-11T07:43:12.031Z,13.05
2022-11-11T07:45:44.006Z,10.02
2022-11-11T07:48:16.024Z,10.50
2022-11-11T07:50:48.147Z,10.73
2022-11-11T07:53:23.279Z,11.95
2022-11-11T07:55:59.049Z,10.25
2022-11-11T07:58:31.072Z,12.20
2022-11-11T08:01:08.516Z,11.13
2022-11-11T08:03:50.104Z,11.80
2022-11-11T08:06:23.985Z,10.20
2022-11-11T08:08:56.370Z,14.48
2022-11-11T08:12:06.742Z,10.80
2022-11-11T08:15:04.908Z,11.25
2022-11-11T08:17:59.342Z,13.38
2022-11-11T08:20:31.444Z,11.10
2022-11-11T08:23:49.893Z,10.57
2022-11-11T08:26:06.525Z,16.00
2022-11-11T08:28:39.111Z,17.70
2022-11-11T08:31:11.357Z,11.15
2022-11-11T08:33:49.044Z,10.60
2022-11-11T08:36:23.779Z,11.50
2022-11-11T08:39:15.822Z,14.88
2022-11-11T08:41:49.536Z,11.82
2022-11-11T08:44:22.314Z,12.68
2022-11-11T08:46:54.516Z,10.85
2022-11-11T08:49:26.531Z,10.35
2022-11-11T08:51:58.555Z,11.70
2022-11-11T08:54:30.712Z,12.10
2022-11-11T08:57:03.950Z,12.68
2022-11-11T08:59:36.380Z,10.15
2022-11-11T09:02:15.234Z,10.35
2022-11-11T09:04:56.636Z,11.05
2022-11-11T09:07:28.950Z,11.63
2022-11-11T09:10:01.745Z,10.70
2022-11-11T09:12:34.334Z,10.95
2022-11-11T09:15:07.139Z,14.57
2022-11-11T09:17:39.797Z,11.57
2022-11-11T09:20:23.733Z,11.63
2022-11-11T09:22:57.313Z,11.30
2022-11-11T09:25:29.386Z,11.32
2022-11-11T09:28:02.764Z,12.25
2022-11-11T09:30:35.021Z,12.23
2022-11-11T09:33:07.217Z,12.13
2022-11-11T09:35:40.549Z,11.90
2022-11-11T09:38:12.925Z,10.40
2022-11-11T09:41:01.375Z,10.68
2022-11-11T09:43:59.445Z,10.48
2022-11-11T09:46:47.104Z,10.77
2022-11-11T09:49:51.954Z,12.70
2022-11-11T09:52:42.876Z,12.82
2022-11-11T09:55:43.870Z,11.60
2022-11-11T09:58:24.759Z,11.43
2022-11-11T10:01:10.969Z,11.20
2022-11-11T10:03:55.022Z,10.60
2022-11-11T10:06:41.437Z,10.13
2022-11-11T10:09:34.100Z,12.10
2022-11-11T10:12:16.242Z,10.95
2022-11-11T10:14:51.278Z,11.30
2022-11-11T10:17:39.797Z,10.35
2022-11-11T10:20:30.561Z,10.93
2022-11-11T10:23:17.807Z,14.18
2022-11-11T10:25:57.380Z,9.75
2022-11-11T10:28:39.685Z,11.60
2022-11-11T10:31:18.668Z,10.48
2022-11-11T10:34:11.839Z,10.32
2022-11-11T10:36:51.178Z,10.60
2022-11-11T10:39:47.443Z,10.05
2022-11-11T10:42:33.129Z,11.18
2022-11-11T10:45:16.138Z,9.00
2022-11-11T10:48:17.065Z,10.75
2022-11-11T10:50:59.298Z,13.85
2022-11-11T10:54:03.465Z,9.77
2022-11-11T10:56:50.680Z,10.23
2022-11-11T11:00:07.005Z,10.27
2022-11-11T11:03:14.975Z,10.07
2022-11-11T11:06:28.359Z,9.15
2022-11-11T11:09:15.806Z,9.90
2022-11-11T11:12:05.278Z,10.48
2022-11-11T11:14:51.402Z,10.13
2022-11-11T11:17:32.824Z,13.48
2022-11-11T11:20:24.782Z,8.88
2022-11-11T11:22:59.531Z,9.07
2022-11-11T11:25:33.681Z,11.27
2022-11-11T11:28:13.848Z,9.30
2022-11-11T11:31:06.801Z,10.00
2022-11-11T11:33:54.050Z,11.60
2022-11-11T11:36:26.894Z,8.48
2022-11-11T11:39:00.676Z,10.85
2022-11-11T11:41:43.274Z,9.68
2022-11-11T11:44:25.698Z,10.15
2022-11-11T11:47:12.778Z,9.70
2022-11-11T11:50:27.507Z,9.55
2022-11-11T11:53:56.972Z,8.65
2022-11-11T11:57:02.186Z,8.80
2022-11-11T12:00:18.479Z,9.63
2022-11-11T12:03:12.452Z,12.70
2022-11-11T12:06:12.425Z,7.78
2022-11-11T12:09:19.964Z,8.48
2022-11-11T12:12:24.939Z,6.70
2022-11-11T12:15:28.593Z,7.45
2022-11-11T12:18:40.201Z,9.35
2022-11-11T12:22:02.876Z,7.20
2022-11-11T12:25:22.989Z,6.65
2022-11-11T12:28:31.858Z,6.85
2022-11-11T12:31:19.697Z,6.75
2022-11-11T12:34:36.557Z,5.95
2022-11-11T12:37:42.558Z,7.70
2022-11-11T12:40:47.167Z,6.40
2022-11-11T12:44:05.933Z,6.10
2022-11-11T12:47:17.841Z,9.20
2022-11-11T12:50:12.867Z,6.07
2022-11-11T12:53:18.823Z,6.53
2022-11-11T12:56:17.100Z,8.48
2022-11-11T12:59:17.503Z,4.75
2022-11-11T13:02:13.368Z,11.48
2022-11-11T13:05:16.522Z,5.65
2022-11-11T13:08:46.305Z,5.50
2022-11-11T13:12:05.315Z,5.80
2022-11-11T13:15:12.481Z,6.22
2022-11-11T13:18:01.563Z,5.45
2022-11-11T13:20:57.423Z,6.28
2022-11-11T13:23:33.616Z,6.03
2022-11-11T13:26:24.971Z,6.25
2022-11-11T13:29:35.575Z,5.72
2022-11-11T13:32:34.130Z,5.85
2022-11-11T13:35:43.856Z,5.30
2022-11-11T13:38:56.354Z,5.80
2022-11-11T13:41:36.976Z,5.18
2022-11-11T13:44:32.989Z,6.28
2022-11-11T13:47:35.004Z,5.18
2022-11-11T13:50:27.629Z,5.78
2022-11-11T13:53:26.883Z,4.95
2022-11-11T13:56:04.209Z,5.28
2022-11-11T13:58:40.003Z,6.88
2022-11-11T14:01:19.035Z,5.57
2022-11-11T14:03:51.382Z,5.50
2022-11-11T14:06:48.767Z,6.35
2022-11-11T14:09:52.019Z,7.03
2022-11-11T14:12:36.809Z,8.07
2022-11-11T14:15:36.898Z,6.03
2022-11-11T14:18:19.776Z,6.20
2022-11-11T14:21:09.449Z,6.40
2022-11-11T14:23:43.491Z,6.10
2022-11-11T14:26:25.786Z,8.15
2022-11-11T14:29:03.655Z,5.97
2022-11-11T14:31:39.085Z,6.30
2022-11-11T14:34:46.282Z,5.55
2022-11-11T14:38:16.291Z,5.70
2022-11-11T14:41:42.597Z,5.82
2022-11-11T14:44:29.669Z,8.15
2022-11-11T14:47:12.464Z,4.50
2022-11-11T14:49:56.364Z,5.20
2022-11-11T14:52:41.388Z,6.00
2022-11-11T14:55:53.046Z,7.43
2022-11-11T14:58:33.304Z,4.38
2022-11-11T15:01:18.855Z,4.15
2022-11-11T15:03:54.274Z,4.45
2022-11-11T15:06:29.963Z,3.97
2022-11-11T15:09:31.749Z,6.97
2022-11-11T15:12:44.326Z,4.25
2022-11-11T15:15:42.716Z,4.55
2022-11-11T15:18:56.489Z,4.03
2022-11-11T15:22:09.405Z,5.03
2022-11-11T15:25:12.270Z,8.02
2022-11-11T15:28:22.965Z,6.10
2022-11-11T15:31:38.735Z,6.43
2022-11-11T15:35:00.572Z,10.32
2022-11-11T15:38:01.366Z,7.68
2022-11-11T15:40:50.459Z,10.95
2022-11-11T15:43:32.262Z,35.45
2022-11-11T15:46:29.810Z,29.30
2022-11-11T15:49:04.826Z,27.55
2022-11-11T15:51:43.609Z,12.00
2022-11-11T15:54:15.613Z,6.97
2022-11-11T15:56:50.933Z,5.40
2022-11-11T15:59:31.224Z,5.38
2022-11-11T16:02:22.371Z,5.88
2022-11-11T16:05:14.514Z,10.90
2022-11-11T16:08:07.304Z,6.63
2022-11-11T16:10:55.654Z,6.10
2022-11-11T16:13:45.212Z,5.07
2022-11-11T16:16:30.196Z,4.93
2022-11-11T16:19:13.023Z,5.05
2022-11-11T16:22:12.429Z,4.22
2022-11-11T16:24:53.022Z,4.68
2022-11-11T16:27:30.677Z,9.60
2022-11-11T16:30:32.972Z,10.82
2022-11-11T16:33:39.645Z,12.70
2022-11-11T16:36:12.259Z,15.80
2022-11-11T16:38:44.899Z,8.95
2022-11-11T16:41:29.042Z,5.65
2022-11-11T16:44:05.194Z,4.85
2022-11-11T16:46:57.203Z,5.35
2022-11-11T16:49:43.100Z,5.93
2022-11-11T16:52:23.975Z,16.40
2022-11-11T16:55:01.352Z,6.43
2022-11-11T16:57:34.747Z,5.55
2022-11-11T17:00:22.183Z,5.38
2022-11-11T17:03:20.276Z,6.05
2022-11-11T17:06:09.947Z,6.75
2022-11-11T17:08:44.498Z,10.15
2022-11-11T17:11:39.243Z,7.57
2022-11-11T17:14:14.289Z,6.82
2022-11-11T17:16:46.614Z,7.80
2022-11-11T17:19:19.318Z,5.43
2022-11-11T17:21:52.659Z,6.78
2022-11-11T17:24:24.848Z,6.10
2022-11-11T17:26:58.009Z,7.13
2022-11-11T17:29:33.351Z,6.45
2022-11-11T17:32:11.065Z,11.40
2022-11-11T17:34:44.292Z,7.70
2022-11-11T17:37:16.765Z,7.85
2022-11-11T17:39:50.005Z,6.53
2022-11-11T17:42:22.698Z,7.38
2022-11-11T17:44:55.249Z,7.05
2022-11-11T17:47:28.058Z,7.53
2022-11-11T17:50:00.391Z,8.18
2022-11-11T17:52:32.708Z,10.70
2022-11-11T17:55:05.440Z,7.40
2022-11-11T17:57:38.201Z,6.47
2022-11-11T18:00:35.459Z,6.07
2022-11-11T18:03:10.367Z,6.00
2022-11-11T18:05:59.811Z,5.93
2022-11-11T18:08:32.807Z,5.40
2022-11-11T18:11:09.429Z,10.63
2022-11-11T18:13:42.013Z,9.15
2022-11-11T18:16:18.591Z,7.18
2022-11-11T18:18:54.594Z,8.00
2022-11-11T18:21:59.083Z,8.93
2022-11-11T18:24:32.186Z,7.93
2022-11-11T18:27:04.600Z,9.00
2022-11-11T18:29:38.039Z,7.22
2022-11-11T18:32:31.784Z,8.00
2022-11-11T18:35:04.356Z,7.30
2022-11-11T18:37:42.437Z,8.52
2022-11-11T18:40:18.821Z,9.02
2022-11-11T18:42:54.900Z,8.55
2022-11-11T18:45:29.627Z,7.00
2022-11-11T18:48:03.436Z,7.65
2022-11-11T18:50:36.481Z,9.35
2022-11-11T18:53:09.609Z,7.38
2022-11-11T18:55:44.971Z,7.50
2022-11-11T18:58:17.781Z,6.97
2022-11-11T19:00:50.493Z,7.65
2022-11-11T19:03:24.790Z,9.48
2022-11-11T19:06:07.286Z,8.82
2022-11-11T19:08:47.888Z,8.90
2022-11-11T19:11:28.314Z,10.80
2022-11-11T19:14:13.170Z,9.93
2022-11-11T19:16:47.384Z,19.25
2022-11-11T19:19:21.560Z,13.75
2022-11-11T19:21:53.834Z,12.98
2022-11-11T19:24:29.787Z,14.55
2022-11-11T19:27:07.312Z,13.68
2022-11-11T19:29:43.159Z,13.48
2022-11-11T19:32:16.480Z,14.07
2022-11-11T19:34:48.641Z,15.77
2022-11-11T19:37:32.241Z,16.05
2022-11-11T19:40:09.973Z,15.40
2022-11-11T19:42:45.129Z,14.55
2022-11-11T19:45:22.686Z,15.50
2022-11-11T19:47:59.476Z,14.70
2022-11-11T19:50:38.098Z,14.82
2022-11-11T19:53:13.550Z,14.98
2022-11-11T19:56:19.433Z,14.52
2022-11-11T19:58:52.733Z,13.65
2022-11-11T20:01:27.709Z,14.93
2022-11-11T20:04:00.823Z,15.63
2022-11-11T20:06:35.809Z,14.27
2022-11-11T20:09:09.807Z,19.20
2022-11-11T20:11:43.892Z,15.23
2022-11-11T20:14:16.404Z,15.23
2022-11-11T20:16:52.454Z,17.75
2022-11-11T20:19:25.431Z,17.13
2022-11-11T20:21:59.957Z,17.10
2022-11-11T20:24:40.256Z,16.73
2022-11-11T20:27:13.855Z,19.70
2022-11-11T20:29:47.027Z,21.27
2022-11-11T20:32:20.971Z,15.43
2022-11-11T20:34:55.145Z,14.98
2022-11-11T20:37:28.967Z,18.48
2022-11-11T20:40:01.843Z,17.30
2022-11-11T20:42:35.562Z,17.30
2022-11-11T20:45:13.319Z,18.88
2022-11-11T20:47:46.900Z,20.20
2022-11-11T20:50:32.891Z,20.25
2022-11-11T20:53:07.293Z,18.75
2022-11-11T20:55:54.527Z,20.55
2022-11-11T20:58:48.056Z,18.95
2022-11-11T21:01:35.879Z,18.13
2022-11-11T21:04:11.303Z,19.23
2022-11-11T21:06:45.911Z,24.38
2022-11-11T21:09:19.916Z,22.55
2022-11-11T21:11:54.281Z,23.23
2022-11-11T21:14:27.535Z,20.50
2022-11-11T21:17:00.375Z,19.67
2022-11-11T21:19:32.740Z,17.23
2022-11-11T21:22:11.817Z,16.63
2022-11-11T21:24:53.777Z,19.48
2022-11-11T21:27:32.847Z,19.67
2022-11-11T21:30:06.918Z,21.95
2022-11-11T21:32:42.114Z,18.65
2022-11-11T21:35:14.348Z,17.05
2022-11-11T21:37:46.528Z,18.25
2022-11-11T21:40:18.859Z,20.60
2022-11-11T21:42:56.826Z,19.85
2022-11-11T21:45:33.856Z,18.10
2022-11-11T21:48:09.661Z,18.77
2022-11-11T21:50:46.384Z,18.92
2022-11-11T21:53:19.362Z,19.92
2022-11-11T21:55:52.356Z,17.88
2022-11-11T21:58:30.009Z,19.17
2022-11-11T22:01:07.348Z,18.23
2022-11-11T22:03:45.122Z,20.02
2022-11-11T22:06:23.366Z,19.98
2022-11-11T22:08:58.716Z,21.25
2022-11-11T22:11:33.977Z,22.60
2022-11-11T22:14:11.016Z,20.13
2022-11-11T22:16:43.607Z,22.08
2022-11-11T22:19:16.618Z,19.42
2022-11-11T22:21:49.866Z,17.45
2022-11-11T22:24:22.060Z,19.80
2022-11-11T22:26:54.268Z,17.45
2022-11-11T22:29:26.340Z,22.92
2022-11-11T22:31:59.801Z,18.30
2022-11-11T22:34:31.983Z,19.05
2022-11-11T22:37:04.689Z,19.60
2022-11-11T22:39:37.484Z,18.70
2022-11-11T22:42:09.956Z,18.77
2022-11-11T22:44:42.278Z,18.95
2022-11-11T22:47:14.322Z,18.77
2022-11-11T22:49:48.205Z,18.13
2022-11-11T22:52:21.658Z,17.42
2022-11-11T22:54:53.796Z,17.73
2022-11-11T22:57:30.797Z,19.27
2022-11-11T23:00:03.240Z,18.52
2022-11-11T23:02:35.630Z,17.35
2022-11-11T23:05:07.780Z,19.60
2022-11-11T23:07:39.729Z,18.60
2022-11-11T23:10:11.729Z,17.00
2022-11-11T23:12:43.705Z,17.63
2022-11-11T23:15:15.800Z,18.83
2022-11-11T23:17:48.062Z,19.50
2022-11-11T23:20:20.270Z,24.98
2022-11-11T23:22:52.233Z,23.27
2022-11-11T23:25:24.196Z,20.20
2022-11-11T23:27:56.251Z,20.80
2022-11-11T23:30:28.192Z,19.60
2022-11-11T23:33:00.458Z,19.33
2022-11-11T23:35:32.533Z,17.90
2022-11-11T23:38:04.726Z,17.38
2022-11-11T23:40:36.739Z,17.88
2022-11-11T23:43:08.745Z,15.55
2022-11-11T23:45:41.019Z,17.75
2022-11-11T23:48:13.011Z,15.45
2022-11-11T23:50:45.263Z,15.80
2022-11-11T23:53:18.154Z,14.70
2022-11-11T23:55:51.354Z,15.77
2022-11-11T23:58:24.304Z,16.90
